首页
METAR-TAF:

METAR-TAF

机场 :

Moosonee, 安大略省, 加拿大

纬度: 51-16N, 经度: 080-39W, 海拔: 10米

当前天气观测

该预报发布于51分钟前的10:00 UTC
风速4节,风向西北
温度 4°C
湿度 93%
气压 1014 hPa
能見度: 14.5公里
天空无云

METAR: CYMO 011000Z AUTO 32004KT 9SM CLR 04/03 A2993 RMK SLP138

时间: 06:51 (10:51 UTC)

预报

该预报发布于5小时和11分钟前的05:40 UTC
预报有效从01日的 06点(UTC)到 01日的 18点(UTC)
风速5节,风向西北
能見度: 10公里
少量云层高于3000英尺
几率 40%
从 01日的 08点(UTC)到 01日的 11点(UTC)
能見度: 3.2公里
多云层高于600英尺
轻雾
从 01日的 1100点(UTC)
风速9节,风向北转西北
能見度: 10公里
多云层高于1000英尺
短暂存在
从 01日的 11点(UTC)到 01日的 14点(UTC)
能見度: 4.8公里
多云层高于300英尺
阴天层高于1000英尺
小雨, 小毛毛雨, 轻雾
从 01日的 1400点(UTC)
风速10节,风向北转西北
能見度: 10公里
多云层高于2000英尺
短暂存在
从 01日的 14点(UTC)到 01日的 18点(UTC)
多云层高于2500英尺

TAF: CYMO 010540Z 0106/0118 32005KT P6SM FEW030 PROB40 0108/0111 2SM BR BKN006 FM011100 34009KT P6SM BKN010 TEMPO 0111/0114 3SM -RA -DZ BR BKN003 OVC010 FM011400 34010KT P6SM BKN020 TEMPO 0114/0118 BKN025 RMK FCST BASED ON AUTO OBS. NXT FCST BY 011200Z

超过4000个机场的气象观测和天气预报(METAR&TAF报告)。

可查询的气象台以黄色和红色小点在地图上表示。

将鼠标移到小点上方,可查看气象台名称。

然后点击查看天气观测和预报。

如需切换地图:点击带黑十字的绿色按钮放大地图;点击带横线的绿色按钮缩小地图;或者点击绿色箭头查看邻近地区的地图。


METAR-TAF: